createdAt,value
2022-10-31T12:45:58.302Z,57.10
2022-10-31T12:58:52.233Z,54.10
2022-10-31T13:26:32.718Z,66.90
2022-10-31T13:30:33.494Z,63.40
2022-10-31T13:34:09.228Z,64.90
2022-10-31T13:47:10.434Z,62.00
2022-10-31T13:51:17.324Z,72.60
2022-10-31T14:10:58.955Z,76.40
2022-10-31T14:14:30.048Z,80.60
2022-10-31T14:42:51.756Z,78.60
2022-10-31T15:15:03.151Z,85.40
2022-10-31T15:19:29.399Z,89.00
2022-10-31T15:23:01.404Z,86.30
2022-10-31T15:26:32.027Z,90.00
2022-10-31T15:30:26.330Z,74.90
2022-10-31T17:12:46.884Z,77.20
2022-10-31T17:16:31.303Z,89.60
2022-10-31T17:20:02.489Z,88.80
2022-10-31T17:23:34.622Z,89.40
2022-10-31T17:26:56.598Z,89.10
2022-10-31T17:30:27.708Z,76.50
2022-10-31T17:34:02.048Z,89.60
2022-10-31T17:37:43.502Z,90.80
2022-10-31T17:41:15.912Z,90.40
2022-10-31T17:44:48.170Z,91.00
2022-10-31T17:48:20.843Z,91.30
2022-10-31T17:51:51.877Z,91.60
2022-10-31T17:55:22.968Z,91.30
2022-10-31T17:58:54.572Z,92.00
2022-10-31T18:02:25.907Z,91.70
2022-10-31T18:06:08.136Z,92.30
2022-10-31T18:09:40.623Z,91.60
2022-10-31T18:13:22.951Z,92.30
2022-10-31T18:17:03.554Z,91.50
2022-10-31T22:42:41.804Z,99.90
2022-10-31T22:46:22.159Z,98.10
2022-10-31T22:49:53.167Z,98.60
2022-10-31T22:53:24.060Z,98.90
2022-10-31T22:56:58.481Z,99.10
2022-10-31T23:00:29.558Z,99.50
2022-10-31T23:04:01.032Z,99.70
2022-10-31T23:07:33.049Z,99.60
2022-10-31T23:11:04.417Z,99.90
2022-10-31T23:14:47.691Z,99.90
2022-10-31T23:18:36.641Z,99.90
2022-10-31T23:22:12.312Z,99.90
2022-10-31T23:25:43.565Z,99.90
2022-10-31T23:29:14.421Z,99.90
2022-10-31T23:33:07.575Z,99.90
2022-10-31T23:36:38.754Z,99.90
2022-10-31T23:40:10.038Z,99.90
2022-10-31T23:43:41.237Z,99.90
2022-10-31T23:47:12.349Z,99.90
2022-10-31T23:50:44.077Z,99.90
2022-10-31T23:54:15.489Z,99.90
2022-10-31T23:57:58.026Z,99.90
